createdAt,value
2023-02-12T00:00:45.001Z,101742.69
2023-02-12T00:06:08.484Z,101759.34
2023-02-12T00:11:30.368Z,101771.78
2023-02-12T00:16:52.197Z,101763.69
2023-02-12T00:22:14.068Z,101786.50
2023-02-12T00:27:36.156Z,101798.50
2023-02-12T00:32:58.024Z,101814.06
2023-02-12T00:38:19.906Z,101819.19
2023-02-12T00:43:41.986Z,101826.06
2023-02-12T00:49:03.898Z,101802.59
2023-02-12T00:54:25.741Z,101827.34
2023-02-12T00:59:47.598Z,101826.44
2023-02-12T01:05:09.592Z,101865.25
2023-02-12T01:10:31.984Z,101858.78
2023-02-12T01:16:07.059Z,101867.75
2023-02-12T01:21:31.821Z,101857.44
2023-02-12T01:26:53.648Z,101879.47
2023-02-12T01:32:15.535Z,101877.47
2023-02-12T01:37:38.642Z,101911.22
2023-02-12T01:43:02.030Z,101886.00
2023-02-12T01:48:27.230Z,101906.69
2023-02-12T01:53:53.548Z,101890.06
2023-02-12T01:59:16.964Z,101918.03
2023-02-12T02:04:43.961Z,101926.06
2023-02-12T02:10:06.694Z,101938.91
2023-02-12T02:15:31.061Z,101949.91
2023-02-12T02:21:13.049Z,101966.41
2023-02-12T02:26:43.677Z,101972.50
2023-02-12T02:32:15.310Z,101997.13
2023-02-12T02:37:45.678Z,102002.72
2023-02-12T02:43:15.366Z,101998.84
2023-02-12T02:48:43.881Z,102002.13
2023-02-12T02:54:13.494Z,102018.31
2023-02-12T02:59:43.324Z,102024.50
2023-02-12T03:05:19.711Z,102048.22
2023-02-12T03:10:44.643Z,102077.41
2023-02-12T03:16:12.870Z,102065.66
2023-02-12T03:21:44.667Z,102096.81
2023-02-12T03:27:11.726Z,102103.00
2023-02-12T03:33:01.344Z,102121.34
2023-02-12T03:38:41.469Z,102131.34
2023-02-12T03:44:16.209Z,102143.47
2023-02-12T03:50:12.047Z,102146.63
2023-02-12T03:55:40.420Z,102169.13
2023-02-12T04:01:03.981Z,102163.53
2023-02-12T04:06:29.009Z,102170.13
2023-02-12T04:12:07.225Z,102167.22
2023-02-12T04:17:56.855Z,102163.97
2023-02-12T04:23:33.877Z,102163.13
2023-02-12T04:29:11.309Z,102186.94
2023-02-12T04:34:39.933Z,102196.06
2023-02-12T04:40:06.235Z,102190.97
2023-02-12T04:45:31.003Z,102203.91
2023-02-12T04:50:52.864Z,102200.75
2023-02-12T04:56:15.263Z,102214.28
2023-02-12T05:01:38.769Z,102230.91
2023-02-12T05:07:00.690Z,102242.34
2023-02-12T05:12:22.590Z,102252.69
2023-02-12T05:17:44.461Z,102261.38
2023-02-12T05:23:06.307Z,102269.75
2023-02-12T05:28:29.080Z,102255.56
2023-02-12T05:33:51.193Z,102295.94
2023-02-12T05:39:13.022Z,102295.75
2023-02-12T05:44:34.893Z,102291.31
2023-02-12T05:49:56.754Z,102313.47
2023-02-12T05:55:18.718Z,102326.94
2023-02-12T06:00:40.754Z,102326.63
2023-02-12T06:06:02.600Z,102346.84
2023-02-12T06:11:24.919Z,102356.38
2023-02-12T06:16:48.853Z,102364.09
2023-02-12T06:22:10.722Z,102374.81
2023-02-12T06:27:32.550Z,102385.03
2023-02-12T06:32:54.451Z,102383.59
2023-02-12T06:38:16.489Z,102388.44
2023-02-12T06:43:38.417Z,102377.47
2023-02-12T06:49:01.014Z,102353.84
2023-02-12T06:54:22.872Z,102349.59
2023-02-12T06:59:44.714Z,102335.13
2023-02-12T07:05:06.658Z,102352.16
2023-02-12T07:10:28.494Z,102376.78
2023-02-12T07:15:50.464Z,102385.91
2023-02-12T07:21:14.377Z,102395.72
2023-02-12T07:26:36.234Z,102401.97
2023-02-12T07:31:58.165Z,102393.69
2023-02-12T07:37:20.095Z,102372.31
2023-02-12T07:42:41.960Z,102377.22
2023-02-12T07:48:03.984Z,102374.44
2023-02-12T07:53:25.872Z,102387.19
2023-02-12T07:58:50.096Z,102383.72
2023-02-12T08:04:14.643Z,102384.25
2023-02-12T08:09:36.525Z,102399.84
2023-02-12T08:14:58.362Z,102410.81
2023-02-12T08:20:20.199Z,102413.94
2023-02-12T08:25:42.056Z,102424.28
2023-02-12T08:31:06.916Z,102411.72
2023-02-12T08:36:38.229Z,102406.84
2023-02-12T08:42:00.565Z,102424.03
2023-02-12T08:47:22.486Z,102419.19
2023-02-12T08:52:44.315Z,102416.09
2023-02-12T08:58:06.214Z,102414.91
2023-02-12T09:03:28.376Z,102417.03
2023-02-12T09:08:51.560Z,102418.69
2023-02-12T09:14:15.524Z,102433.94
2023-02-12T09:19:37.381Z,102435.13
2023-02-12T09:24:59.239Z,102437.44
2023-02-12T09:30:21.315Z,102430.63
2023-02-12T09:35:43.357Z,102442.41
2023-02-12T09:41:20.360Z,102464.22
2023-02-12T09:47:12.515Z,102468.38
2023-02-12T09:52:35.555Z,102463.88
2023-02-12T09:57:57.765Z,102479.81
2023-02-12T10:03:19.624Z,102484.31
2023-02-12T10:08:53.720Z,102481.31
2023-02-12T10:14:52.969Z,102475.13
2023-02-12T10:20:31.652Z,102467.72
2023-02-12T10:25:59.878Z,102479.28
2023-02-12T10:31:34.229Z,102496.78
2023-02-12T10:37:10.373Z,102477.28
2023-02-12T10:42:36.762Z,102488.59
2023-02-12T10:48:10.200Z,102482.28
2023-02-12T10:53:34.616Z,102490.84
2023-02-12T10:58:59.656Z,102478.56
2023-02-12T11:04:28.319Z,102494.22
2023-02-12T11:09:52.547Z,102481.44
2023-02-12T11:15:17.694Z,102498.09
2023-02-12T11:20:51.048Z,102491.59
2023-02-12T11:26:18.640Z,102498.63
2023-02-12T11:31:40.863Z,102493.75
2023-02-12T11:37:03.452Z,102486.44
2023-02-12T11:42:26.617Z,102488.63
2023-02-12T11:47:51.137Z,102487.94
2023-02-12T11:53:22.406Z,102486.88
2023-02-12T11:58:46.572Z,102485.13
2023-02-12T12:04:16.399Z,102484.63
2023-02-12T12:09:49.693Z,102478.13
2023-02-12T12:15:25.126Z,102475.03
2023-02-12T12:20:56.531Z,102450.09
2023-02-12T12:26:25.724Z,102451.56
2023-02-12T12:31:57.825Z,102453.94
2023-02-12T12:37:31.101Z,102450.56
2023-02-12T12:43:22.104Z,102434.97
2023-02-12T12:48:55.237Z,102451.28
2023-02-12T12:54:48.121Z,102446.25
2023-02-12T13:00:24.280Z,102451.00
2023-02-12T13:06:06.449Z,102432.91
2023-02-12T13:12:05.640Z,102427.59
2023-02-12T13:17:42.742Z,102428.84
2023-02-12T13:23:13.508Z,102429.06
2023-02-12T13:28:42.292Z,102436.97
2023-02-12T13:34:07.860Z,102433.13
2023-02-12T13:39:34.812Z,102426.72
2023-02-12T13:45:24.249Z,102444.34
2023-02-12T13:51:24.240Z,102443.97
2023-02-12T13:56:53.803Z,102442.97
2023-02-12T14:02:18.683Z,102439.69
2023-02-12T14:08:05.212Z,102436.56
2023-02-12T14:13:27.153Z,102436.88
2023-02-12T14:18:48.996Z,102452.13
2023-02-12T14:24:35.974Z,102447.41
2023-02-12T14:30:03.808Z,102430.72
2023-02-12T14:35:49.137Z,102431.59
2023-02-12T14:41:37.279Z,102429.66
2023-02-12T14:47:01.555Z,102435.06
2023-02-12T14:52:27.340Z,102419.84
2023-02-12T14:57:50.051Z,102442.78
2023-02-12T15:03:14.583Z,102447.06
2023-02-12T15:09:03.095Z,102442.72
2023-02-12T15:14:30.904Z,102438.38
2023-02-12T15:20:07.687Z,102447.44
2023-02-12T15:25:33.422Z,102447.97
2023-02-12T15:30:56.959Z,102457.44
2023-02-12T15:36:22.548Z,102470.94
2023-02-12T15:41:44.479Z,102467.22
2023-02-12T15:47:14.888Z,102476.50
2023-02-12T15:52:39.640Z,102481.34
2023-02-12T15:58:02.122Z,102453.47
2023-02-12T16:03:38.279Z,102469.97
2023-02-12T16:09:29.826Z,102463.97
2023-02-12T16:14:54.498Z,102458.59
2023-02-12T16:20:16.364Z,102475.03
2023-02-12T16:25:38.340Z,102428.56
2023-02-12T16:31:10.128Z,102447.88
2023-02-12T16:36:32.464Z,102451.06
2023-02-12T16:41:57.188Z,102448.59
2023-02-12T16:47:24.686Z,102420.81
2023-02-12T16:52:46.577Z,102438.88
2023-02-12T16:58:09.026Z,102438.97
2023-02-12T17:03:31.529Z,102429.50
2023-02-12T17:08:53.634Z,102435.22
2023-02-12T17:14:18.325Z,102428.22
2023-02-12T17:19:40.464Z,102440.72
2023-02-12T17:25:02.357Z,102440.63
2023-02-12T17:30:24.473Z,102458.44
2023-02-12T17:35:47.211Z,102460.81
2023-02-12T17:41:11.015Z,102447.22
2023-02-12T17:46:33.247Z,102472.22
2023-02-12T17:51:55.151Z,102488.38
2023-02-12T17:57:17.370Z,102480.84
2023-02-12T18:02:39.580Z,102438.75
2023-02-12T18:08:01.917Z,102460.13
2023-02-12T18:13:24.666Z,102456.94
2023-02-12T18:18:46.621Z,102458.50
2023-02-12T18:24:08.885Z,102450.16
2023-02-12T18:29:31.055Z,102443.53
2023-02-12T18:34:53.037Z,102441.53
2023-02-12T18:40:15.724Z,102426.13
2023-02-12T18:45:39.878Z,102436.78
2023-02-12T18:51:03.337Z,102422.59
2023-02-12T18:56:25.204Z,102426.38
2023-02-12T19:01:47.653Z,102419.78
2023-02-12T19:07:09.653Z,102400.91
2023-02-12T19:12:33.450Z,102417.94
2023-02-12T19:18:01.820Z,102413.84
2023-02-12T19:23:24.095Z,102413.03
2023-02-12T19:28:46.576Z,102413.22
2023-02-12T19:34:13.474Z,102410.66
2023-02-12T19:39:35.448Z,102394.91
2023-02-12T19:44:57.299Z,102392.84
2023-02-12T19:50:19.294Z,102386.44
2023-02-12T19:55:41.652Z,102386.16
2023-02-12T20:01:15.407Z,102365.09
2023-02-12T20:06:38.627Z,102374.69
2023-02-12T20:12:00.740Z,102376.75
2023-02-12T20:17:23.102Z,102365.94
2023-02-12T20:22:45.164Z,102376.34
2023-02-12T20:28:07.147Z,102372.06
2023-02-12T20:33:29.077Z,102372.44
2023-02-12T20:38:54.016Z,102354.94
2023-02-12T20:44:18.956Z,102346.28
2023-02-12T20:49:40.942Z,102330.03
2023-02-12T20:55:03.087Z,102339.69
2023-02-12T21:00:25.061Z,102339.31
2023-02-12T21:05:47.022Z,102328.41
2023-02-12T21:11:14.868Z,102329.44
2023-02-12T21:16:39.271Z,102327.81
2023-02-12T21:22:01.157Z,102329.16
2023-02-12T21:27:23.201Z,102330.56
2023-02-12T21:32:45.057Z,102319.50
2023-02-12T21:38:06.959Z,102323.94
2023-02-12T21:43:29.113Z,102320.56
2023-02-12T21:48:51.302Z,102310.44
2023-02-12T21:54:15.375Z,102311.13
2023-02-12T21:59:37.270Z,102301.44
2023-02-12T22:04:59.111Z,102299.78
2023-02-12T22:10:21.000Z,102290.19
2023-02-12T22:15:42.891Z,102289.09
2023-02-12T22:21:06.578Z,102280.34
2023-02-12T22:26:30.330Z,102280.28
2023-02-12T22:31:52.372Z,102296.38
2023-02-12T22:37:14.292Z,102290.75
2023-02-12T22:42:36.569Z,102291.91
2023-02-12T22:47:58.496Z,102285.97
2023-02-12T22:53:21.039Z,102282.38
2023-02-12T22:58:42.876Z,102266.97
2023-02-12T23:04:04.895Z,102266.31
2023-02-12T23:09:26.935Z,102252.78
2023-02-12T23:14:48.793Z,102229.25
2023-02-12T23:20:13.924Z,102235.63
2023-02-12T23:25:35.839Z,102242.78
2023-02-12T23:30:58.596Z,102230.94
2023-02-12T23:36:20.873Z,102223.16
2023-02-12T23:41:42.781Z,102211.28
2023-02-12T23:47:05.257Z,102182.03
2023-02-12T23:52:27.198Z,102205.47
2023-02-12T23:57:49.298Z,102197.09
